Latest Weather Observations for Campania

IDT60801

Issued at 12:02 pm EDT Sunday 18 February 2018 (issued every 30 minutes, with the page automatically refreshed every 10 minutes)

About weather observations | Map of weather stations | Latest weather observations for TAS | Other Formats
Station Details ID: 094212 Name: CAMPANIA (KINCORA) Lat: -42.69 Lon: 147.43 Height: 45.0 m
Data from the previous 72 hours. | See also: Recent months at Campania
Date/Time
EDT
Temp
°C
App
Temp
°C
Dew
Point
°C
Rel
Hum
%
Delta-T
°C
Wind Press
QNH
hPa
Press
MSL
hPa
Rain since
9am
mm
Dir  Spd
km/h
Gust
km/h
Spd
kts
Gust
kts
18/12:00pm 19.7 17.6 9.9 53 5.2 W 11 26 6 14 - - 0.0
18/11:30am 19.2 17.7 10.5 57 4.7 S 9 13 5 7 - - 0.0
18/11:00am 18.5 16.0 9.8 57 4.6 SW 13 20 7 11 - - 0.0
18/10:30am 18.3 16.4 10.4 60 4.2 SSW 11 15 6 8 - - 0.0
18/10:00am 17.2 15.2 10.3 64 3.7 SW 11 15 6 8 - - 0.0
18/09:30am 16.9 15.5 11.0 68 3.2 SW 9 15 5 8 - - 0.0
18/09:00am 16.4 15.4 10.9 70 2.9 W 7 17 4 9 - - 0.2
18/08:30am 16.1 15.9 11.7 75 2.4 ENE 4 9 2 5 - - 0.2
18/08:00am 15.6 14.0 11.4 76 2.3 WSW 11 19 6 10 - - 0.2
18/07:30am 14.5 15.3 12.4 87 1.1 CALM 0 0 0 0 - - 0.2
18/07:00am 14.4 14.0 12.3 87 1.1 N 6 9 3 5 - - 0.2
18/06:30am 14.6 14.2 12.5 87 1.1 NW 6 7 3 4 - - 0.2
18/06:00am 14.9 13.9 12.4 85 1.4 NNW 9 11 5 6 - - 0.2
18/05:30am 15.3 12.6 11.7 79 1.9 WSW 17 24 9 13 - - 0.2
18/05:00am 15.1 13.0 12.4 84 1.5 W 15 20 8 11 - - 0.2
18/04:30am 15.6 14.3 12.4 81 1.8 WSW 11 15 6 8 - - 0.0
18/04:00am 16.5 14.8 11.2 71 2.9 SW 11 15 6 8 - - 0.0
18/03:30am 17.2 15.1 11.0 67 3.3 SW 13 15 7 8 - - 0.0
18/03:00am 17.5 15.6 10.6 64 3.7 WSW 11 13 6 7 - - 0.0
18/02:30am 18.3 15.9 10.2 59 4.3 W 13 20 7 11 - - 0.0
18/02:00am 18.4 16.1 10.3 59 4.3 NW 13 17 7 9 - - 0.0
18/01:30am 18.5 15.3 10.1 58 4.5 NNW 17 22 9 12 - - 0.0
18/01:00am 18.3 16.5 10.9 62 4.0 N 11 20 6 11 - - 0.0
18/12:30am 18.6 16.0 10.7 60 4.3 NNW 15 22 8 12 - - 0.0
18/12:00am 18.8 15.6 10.1 57 4.7 NNW 17 24 9 13 - - 0.0
 
Date/Time
EDT
Temp
°C
App
Temp
°C
Dew
Point
°C
Rel
Hum
%
Delta-T
°C
Wind Press
QNH
hPa
Press
MSL
hPa
Rain since
9am
mm
Dir  Spd
km/h
Gust
km/h
Spd
kts
Gust
kts
17/11:30pm 18.7 17.1 10.3 58 4.5 NW 9 13 5 7 - - 0.0
17/11:00pm 19.0 16.7 10.6 58 4.5 NW 13 26 7 14 - - 0.0
17/10:30pm 19.2 18.1 10.7 58 4.6 NNW 7 13 4 7 - - 0.0
17/10:00pm 19.2 17.0 10.7 58 4.6 NNW 13 26 7 14 - - 0.0
17/09:30pm 19.6 16.1 10.9 57 4.7 NNW 20 33 11 18 - - 0.0
17/09:00pm 19.6 16.4 11.1 58 4.7 NNW 19 30 10 16 - - 0.0
17/08:30pm 19.9 17.0 10.9 56 4.9 NW 17 32 9 17 - - 0.0
17/08:00pm 20.1 15.8 10.8 55 5.1 NW 24 43 13 23 - - 0.0
17/07:30pm 20.4 16.8 10.5 53 5.4 NW 20 32 11 17 - - 0.0
17/07:00pm 20.9 15.4 10.4 51 5.7 WNW 30 50 16 27 - - 0.0
17/06:30pm 22.0 16.8 10.2 47 6.4 WNW 28 52 15 28 - - 0.0
17/06:02pm 22.3 17.1 10.1 46 6.7 NW 28 46 15 25 - - 0.0
17/06:00pm 22.5 17.6 10.0 45 6.8 NW 26 46 14 25 - - 0.0
17/05:30pm 21.8 17.7 10.0 47 6.4 NW 22 32 12 17 - - 0.0
17/05:04pm 21.8 15.6 9.3 45 6.7 W 32 50 17 27 - - 0.0
17/05:00pm 22.0 15.8 9.5 45 6.7 W 32 46 17 25 - - 0.0
17/04:30pm 22.3 15.8 9.1 43 7.1 W 33 52 18 28 - - 0.0
17/04:01pm 22.6 17.3 9.7 44 7.0 WNW 28 46 15 25 - - 0.0
17/04:00pm 22.4 17.3 9.2 43 7.1 WNW 26 46 14 25 - - 0.0
17/03:30pm 22.5 16.2 9.0 42 7.2 NW 32 56 17 30 - - 0.0
17/03:00pm 22.0 16.5 9.2 44 6.9 WNW 28 59 15 32 - - 0.0
17/02:30pm 21.2 15.7 9.1 46 6.4 NW 28 48 15 26 - - 0.0
17/02:15pm 21.5 15.9 8.7 44 6.8 WNW 28 50 15 27 - - 0.0
17/02:00pm 21.7 17.4 9.3 45 6.6 WNW 22 33 12 18 - - 0.0
17/01:30pm 21.0 15.5 9.3 47 6.2 WNW 28 48 15 26 - - 0.0
17/01:00pm 20.0 13.6 8.4 47 6.1 NW 32 54 17 29 - - 0.0
17/12:57pm 20.1 14.0 8.4 47 6.1 WNW 30 48 16 26 - - 0.0
17/12:30pm 19.7 14.8 8.4 48 5.9 NW 24 35 13 19 - - 0.0
17/12:00pm 19.6 13.2 8.6 49 5.7 NW 32 52 17 28 - - 0.0
17/11:30am 19.6 12.9 8.3 48 5.9 NW 33 56 18 30 - - 0.0
17/11:19am 19.2 12.4 7.9 48 5.8 WNW 33 54 18 29 - - 0.0
17/11:00am 18.9 13.4 7.7 48 5.7 NNW 26 41 14 22 - - 0.0
17/10:30am 18.0 13.8 7.4 50 5.4 NW 19 30 10 16 - - 0.0
17/10:00am 17.3 11.8 7.6 53 4.9 NW 26 44 14 24 - - 0.0
17/09:30am 17.1 11.9 7.2 52 5.0 NW 24 37 13 20 - - 0.0
17/09:00am 17.0 12.1 7.1 52 4.9 NNW 22 33 12 18 - - 0.0
17/08:30am 16.3 12.0 7.0 54 4.6 NNW 19 30 10 16 - - 0.0
17/08:00am 15.7 10.4 6.7 55 4.4 NNW 24 37 13 20 - - 0.0
17/07:30am 15.2 10.6 6.5 56 4.2 NNW 20 30 11 16 - - 0.0
17/07:00am 15.1 10.4 6.1 55 4.3 NNW 20 30 11 16 - - 0.0
17/06:30am 15.0 10.3 6.0 55 4.3 NW 20 32 11 17 - - 0.0
17/06:00am 14.8 10.1 5.9 55 4.3 NW 20 33 11 18 - - 0.0
17/05:30am 14.7 9.2 6.0 56 4.2 NNW 24 35 13 19 - - 0.0
17/05:00am 14.5 9.9 5.8 56 4.1 NW 19 39 10 21 - - 0.0
17/04:30am 14.6 9.9 6.2 57 4.0 NNW 20 32 11 17 - - 0.0
17/04:00am 14.7 11.0 6.3 57 4.1 NW 15 28 8 15 - - 0.0
17/03:30am 14.0 9.9 6.1 59 3.8 N 17 26 9 14 - - 0.0
17/03:00am 14.2 10.1 6.3 59 3.8 N 17 35 9 19 - - 0.0
17/02:30am 14.0 11.8 6.1 59 3.8 NNW 7 11 4 6 - - 0.0
17/02:00am 13.9 10.1 5.8 58 3.8 NW 15 30 8 16 - - 0.0
17/01:30am 13.5 11.2 5.9 60 3.6 NNW 7 13 4 7 - - 0.0
17/01:00am 12.9 10.4 6.5 65 3.1 N 9 13 5 7 - - 0.0
17/12:30am 13.6 10.1 7.2 65 3.1 WNW 15 22 8 12 - - 0.0
17/12:00am 14.0 10.0 6.8 62 3.5 W 17 26 9 14 - - 0.0
 
Date/Time
EDT
Temp
°C
App
Temp
°C
Dew
Point
°C
Rel
Hum
%
Delta-T
°C
Wind Press
QNH
hPa
Press
MSL
hPa
Rain since
9am
mm
Dir  Spd
km/h
Gust
km/h
Spd
kts
Gust
kts
16/11:30pm 14.7 10.1 6.3 57 4.1 NW 20 32 11 17 - - 0.0
16/11:00pm 14.8 11.8 5.9 55 4.3 NW 11 17 6 9 - - 0.0
16/10:30pm 14.7 10.9 5.8 55 4.3 N 15 24 8 13 - - 0.0
16/10:00pm 14.9 10.4 6.0 55 4.3 N 19 22 10 12 - - 0.0
16/09:30pm 14.9 11.1 5.7 54 4.4 WNW 15 26 8 14 - - 0.0
16/09:00pm 15.3 11.1 5.8 53 4.6 W 17 22 9 12 - - 0.0
16/08:30pm 15.4 11.6 5.9 53 4.6 NW 15 30 8 16 - - 0.0
16/08:00pm 15.2 12.2 6.2 55 4.4 NW 11 15 6 8 - - 0.0
16/07:30pm 15.5 11.7 5.7 52 4.7 WNW 15 22 8 12 - - 0.0
16/07:00pm 15.6 10.8 5.5 51 4.8 W 20 32 11 17 - - 0.0
16/06:30pm 15.9 11.1 5.8 51 4.9 W 20 30 11 16 - - 0.0
16/06:00pm 16.2 11.5 5.2 48 5.2 WNW 19 32 10 17 - - 0.0
16/05:30pm 16.5 10.8 4.9 46 5.5 NW 24 41 13 22 - - 0.0
16/05:00pm 18.2 14.3 5.4 43 6.2 W 15 41 8 22 - - 0.0
16/04:30pm 16.9 9.1 4.9 45 5.7 WNW 35 54 19 29 - - 0.0
16/04:01pm 16.3 9.0 4.7 46 5.5 W 32 50 17 27 - - 0.0
16/04:00pm 16.5 9.7 5.2 47 5.4 W 30 43 16 23 - - 0.0
16/03:30pm 17.4 10.2 5.7 46 5.7 W 33 56 18 30 - - 0.0
16/03:20pm 16.2 8.7 6.1 51 4.9 W 35 54 19 29 - - 0.0
16/03:00pm 16.8 8.5 6.0 49 5.3 W 39 52 21 28 - - 0.0
16/02:30pm 18.2 10.7 4.4 40 6.6 W 33 52 18 28 - - 0.0
16/02:00pm 17.0 10.6 5.3 46 5.6 WNW 28 52 15 28 - - 0.0
16/01:41pm 15.9 9.4 4.6 47 5.3 W 28 46 15 25 - - 0.0
16/01:30pm 16.7 10.7 5.3 47 5.5 W 26 44 14 24 - - 0.0
16/01:00pm 16.4 9.2 4.8 46 5.5 WNW 32 52 17 28 - - 0.0
16/12:39pm 17.2 10.6 4.2 42 6.1 W 28 46 15 25 - - 0.0
16/12:30pm 17.6 11.5 4.9 43 6.1 W 26 56 14 30 - - 0.0
16/12:21pm 16.9 9.4 4.3 43 5.9 W 33 52 18 28 - - 0.0
16/12:14pm 16.4 8.1 4.1 44 5.7 WSW 37 43 20 23 - - 0.0
16/12:04pm 16.1 8.6 4.2 45 5.6 WNW 33 52 18 28 - - 0.0
16/12:00pm 16.0 7.6 3.8 44 5.6 WNW 37 52 20 28 - - 0.0
16/11:30am 15.9 10.2 4.9 48 5.2 W 24 44 13 24 - - 0.0
16/11:02am 14.1 7.5 4.4 52 4.5 WNW 28 46 15 25 - - 0.0
16/11:00am 13.8 6.8 4.1 52 4.4 WNW 30 46 16 25 - - 0.0
16/10:30am 14.3 8.4 3.7 49 4.8 WNW 24 44 13 24 - - 0.0
16/10:00am 14.7 8.9 4.4 50 4.8 WNW 24 41 13 22 - - 0.0
16/09:40am 13.9 6.4 3.7 50 4.6 W 32 50 17 27 - - 0.0
16/09:30am 13.5 6.0 3.3 50 4.6 W 32 46 17 25 - - 0.0
16/09:00am 13.0 8.0 3.7 53 4.2 W 19 32 10 17 - - 0.4
16/08:30am 12.6 7.6 3.5 54 4.1 NW 19 33 10 18 - - 0.4
16/08:00am 12.0 9.0 4.0 58 3.6 NNW 9 17 5 9 - - 0.4
16/07:30am 11.7 8.6 3.5 57 3.6 N 9 13 5 7 - - 0.4
16/07:00am 11.6 8.5 3.4 57 3.6 N 9 17 5 9 - - 0.4
16/06:30am 11.5 7.5 3.0 56 3.7 NNW 13 26 7 14 - - 0.4
16/06:00am 11.5 8.3 3.0 56 3.7 NW 9 15 5 8 - - 0.4
16/05:30am 11.4 7.8 2.9 56 3.7 NNW 11 17 6 9 - - 0.4
16/05:00am 11.4 7.0 2.9 56 3.7 NW 15 22 8 12 - - 0.4
16/04:30am 11.1 7.2 3.2 58 3.5 NNW 13 20 7 11 - - 0.4
16/04:00am 11.4 7.4 2.9 56 3.7 N 13 17 7 9 - - 0.4
16/03:30am 11.2 7.1 2.5 55 3.8 NW 13 22 7 12 - - 0.4
16/03:00am 10.7 7.6 3.5 61 3.2 NNW 9 15 5 8 - - 0.4
16/02:30am 10.7 8.2 3.5 61 3.2 N 6 13 3 7 - - 0.4
16/02:00am 10.8 8.1 3.6 61 3.2 N 7 11 4 6 - - 0.4
16/01:30am 11.4 7.6 3.9 60 3.3 NW 13 19 7 10 - - 0.4
16/01:00am 12.0 6.9 3.3 55 3.9 WNW 19 33 10 18 - - 0.4
16/12:30am 12.0 7.6 2.7 53 4.1 NW 15 20 8 11 - - 0.4
16/12:00am 11.4 8.2 3.2 57 3.6 NW 9 13 5 7 - - 0.4
 
Date/Time
EDT
Temp
°C
App
Temp
°C
Dew
Point
°C
Rel
Hum
%
Delta-T
°C
Wind Press
QNH
hPa
Press
MSL
hPa
Rain since
9am
mm
Dir  Spd
km/h
Gust
km/h
Spd
kts
Gust
kts
15/11:30pm 10.9 7.8 3.7 61 3.2 NW 9 15 5 8 - - 0.4
15/11:00pm 12.3 6.6 3.0 53 4.1 WNW 22 35 12 19 - - 0.4
15/10:30pm 12.7 6.0 3.6 54 4.1 WNW 28 43 15 23 - - 0.4
15/10:18pm 12.8 5.1 3.5 53 4.2 W 33 56 18 30 - - 0.4
15/10:00pm 13.0 7.1 3.7 53 4.2 W 24 41 13 22 - - 0.4
15/09:30pm 13.2 8.3 4.9 57 3.8 W 20 33 11 18 - - 0.4
15/09:00pm 14.0 6.7 4.3 52 4.5 W 32 56 17 30 - - 0.4
15/08:55pm 14.0 7.1 4.6 53 4.4 W 30 56 16 30 - - 0.4
15/08:30pm 14.0 8.8 5.4 56 4.1 W 22 37 12 20 - - 0.4
15/08:00pm 14.2 7.0 5.0 54 4.3 W 32 52 17 28 - - 0.4
15/07:31pm 15.0 8.7 5.5 53 4.5 W 28 46 15 25 - - 0.4
15/07:30pm 15.0 8.7 5.5 53 4.5 W 28 43 15 23 - - 0.4
15/07:00pm 15.6 9.3 5.8 52 4.7 W 28 43 15 23 - - 0.4
15/06:38pm 15.8 8.3 6.3 53 4.6 W 35 54 19 29 - - 0.4
15/06:35pm 15.9 7.2 6.1 52 4.8 W 41 54 22 29 - - 0.4
15/06:31pm 17.0 9.0 5.6 47 5.5 WNW 37 56 20 30 - - 0.4
15/06:30pm 17.0 8.6 5.6 47 5.5 WNW 39 56 21 30 - - 0.4
15/06:20pm 17.3 9.2 5.3 45 5.8 W 37 56 20 30 - - 0.4
15/06:18pm 17.3 8.8 5.3 45 5.8 W 39 54 21 29 - - 0.4
15/06:00pm 17.8 10.6 5.1 43 6.1 WNW 32 54 17 29 - - 0.4
15/05:43pm 18.2 9.2 4.4 40 6.6 NW 41 59 22 32 - - 0.4
15/05:30pm 18.4 9.2 3.5 37 7.0 NW 41 57 22 31 - - 0.4
15/05:00pm 19.8 10.9 5.1 38 7.2 NW 41 63 22 34 - - 0.4
15/04:30pm 19.3 11.1 6.4 43 6.4 WNW 39 63 21 34 - - 0.4
15/04:00pm 19.9 12.4 6.3 41 6.8 W 35 59 19 32 - - 0.4
15/03:52pm 19.7 12.1 5.7 40 6.9 W 35 59 19 32 - - 0.4
15/03:30pm 19.6 11.7 6.0 41 6.8 NW 37 57 20 31 - - 0.4
15/03:04pm 20.1 12.4 7.1 43 6.6 NW 37 56 20 30 - - 0.4
15/03:00pm 19.9 11.9 7.3 44 6.4 NW 39 56 21 30 - - 0.4
15/02:34pm 18.7 10.0 6.2 44 6.2 NW 41 74 22 40 - - 0.4
15/02:30pm 19.3 12.0 7.1 45 6.2 WNW 35 56 19 30 - - 0.4
15/02:24pm 19.3 12.9 7.1 45 6.2 WNW 30 52 16 28 - - 0.4
15/02:00pm 18.0 11.8 7.7 51 5.2 W 30 41 16 22 - - 0.4
15/01:30pm 18.5 13.6 8.5 52 5.2 WNW 24 39 13 21 - - 0.4
15/01:00pm 16.8 10.0 7.7 55 4.6 W 33 48 18 26 - - 0.4
15/12:53pm 17.2 10.9 7.5 53 4.9 W 30 48 16 26 - - 0.4
15/12:30pm 19.3 15.3 9.2 52 5.3 W 20 37 11 20 - - 0.4

Other Formats:

Comma delimited format used in spreadsheet applications
http://www.bom.gov.au/fwo/IDT60801/IDT60801.95972.axf

JavaScript Object Notation format (JSON) in row-major order
http://www.bom.gov.au/fwo/IDT60801/IDT60801.95972.json